createdAt,value
2022-10-07T00:18:54.774Z,101747.94
2022-10-07T00:40:41.544Z,101737.79
2022-10-07T01:02:28.804Z,101727.71
2022-10-07T01:24:26.248Z,101713.70
2022-10-07T01:46:16.599Z,101695.29
2022-10-07T02:08:17.938Z,101677.75
2022-10-07T02:30:07.520Z,101663.95
2022-10-07T02:51:59.412Z,101646.36
2022-10-07T03:13:46.561Z,101638.09
2022-10-07T03:35:32.855Z,101629.60
2022-10-07T03:57:36.567Z,101612.77
2022-10-07T04:19:22.574Z,101591.39
2022-10-07T04:41:09.309Z,101574.48
2022-10-07T05:02:57.198Z,101564.13
2022-10-07T05:24:43.520Z,101560.19
2022-10-07T05:46:30.001Z,101549.98
2022-10-07T06:08:16.739Z,101537.82
2022-10-07T06:30:03.369Z,101535.05
2022-10-07T06:51:49.311Z,101532.76
2022-10-07T07:13:36.210Z,101533.14
2022-10-07T07:35:23.346Z,101521.42
2022-10-07T07:57:09.774Z,101499.59
2022-10-07T08:18:56.804Z,101472.25
2022-10-07T08:40:51.734Z,101448.58
2022-10-07T09:02:48.790Z,101422.23
2022-10-07T09:24:36.088Z,101394.67
2022-10-07T09:46:43.288Z,101356.94
2022-10-07T10:08:32.701Z,101323.48
2022-10-07T10:30:23.889Z,101298.09
2022-10-07T10:52:38.045Z,101264.05
2022-10-07T11:14:25.536Z,101211.31
2022-10-07T11:36:18.963Z,101170.86
2022-10-07T11:58:06.477Z,101134.55
2022-10-07T12:20:37.373Z,101090.42
2022-10-07T12:42:59.918Z,101053.29
2022-10-07T13:05:08.762Z,101021.02
2022-10-07T13:26:56.038Z,100984.00
2022-10-07T13:48:49.048Z,100944.81
2022-10-07T14:10:36.041Z,100902.74
2022-10-07T14:32:41.320Z,100868.44
2022-10-07T14:54:27.603Z,100841.39
2022-10-07T15:16:17.413Z,100811.38
2022-10-07T15:38:03.276Z,100792.08
2022-10-07T15:59:48.905Z,100784.10
2022-10-07T16:21:35.855Z,100768.78
2022-10-07T16:43:21.561Z,100758.87
2022-10-07T17:05:09.150Z,100749.02
2022-10-07T17:26:56.266Z,100739.61
2022-10-07T17:48:45.105Z,100721.44
2022-10-07T18:10:31.203Z,100702.52
2022-10-07T18:32:17.495Z,100690.18
2022-10-07T18:54:03.551Z,100678.33
2022-10-07T19:15:49.435Z,100668.21
2022-10-07T19:37:36.373Z,100668.80
2022-10-07T19:59:22.166Z,100654.58
2022-10-07T20:21:12.090Z,100648.52
2022-10-07T20:43:00.647Z,100635.76
2022-10-07T21:04:48.203Z,100618.39
2022-10-07T21:26:34.491Z,100609.46
2022-10-07T21:48:20.652Z,100601.43
2022-10-07T22:10:07.406Z,100578.20
2022-10-07T22:31:53.260Z,100550.55
2022-10-07T22:53:40.412Z,100539.66
2022-10-07T23:15:26.307Z,100527.73
2022-10-07T23:37:12.074Z,100518.23
2022-10-07T23:58:57.825Z,100521.48
